PWSweather.com
Personal Weather Stations
Station Observations
CONLIG1
Conlig, Bangor Co DownGB BT23

ConligBangor Co DownGB BT23

Lat: 54.63399887, Lon: -5.671

Elevation: 166

Station Type: Davis Vantage Pro2 Plus

https://www.conligwx.org

Latest ConditionsUpdated 6:15:00 PM GMT Tuesday, Sep 18, 2018
Currently Today's Max Today's Min Today's Average
Temperature 62.0°F16.7°C 64.2°F17.9°C 58.2°F14.6°C 60.7°F15.9°C
Dew Point 50.9°F10.5°C 59.7°F15.4°C 50.9°F10.5°C 56.4°F13.6°C
Winds 5.0 mph SW8.0 kmh SW 9.0 mph -14.5 kmh - - 4.4 mph 7.1 kmh
Wind Gusts 16.0 mph25.7 kmh 26.0 mph41.8 kmh - -
Humidity 67% 96% 66% 86%
Pressure 29.45 in997.3 mb 29.46 in997.6 mb 29.26 in990.9 mb -
Precipitation - 0.31 in7.9 mm - -
Hour Temp Dew Point Humidity Winds Wind Gusts Pressure Precip Precip Rate Daily Precip Total
06:15 PM 62.0°F16.7°C 50.9°F10.5°C 67% 5.0 mph SW8.0 kmh SW 16.0 mph25.7 kmh 29.45 in997.3 mb 0.00 in0.0 mm 0.00 in0.0 mm 0.31 in7.9 mm
06:00 PM 62.7°F17.1°C 51.6°F10.9°C 67% 4.0 mph SW6.4 kmh SW 12.0 mph19.3 kmh 29.45 in997.3 mb 0.00 in0.0 mm 0.00 in0.0 mm 0.31 in7.9 mm
05:45 PM 63.6°F17.6°C 52.0°F11.1°C 66% 5.0 mph SW8.0 kmh SW 12.0 mph19.3 kmh 29.44 in997.0 mb 0.00 in0.0 mm 0.00 in0.0 mm 0.31 in7.9 mm
05:30 PM 64.0°F17.8°C 53.2°F11.8°C 68% 7.0 mph SW11.3 kmh SW 16.0 mph25.7 kmh 29.43 in996.6 mb 0.00 in0.0 mm 0.00 in0.0 mm 0.31 in7.9 mm
05:15 PM 63.8°F17.7°C 55.0°F12.8°C 73% 6.0 mph SW9.7 kmh SW 12.0 mph19.3 kmh 29.44 in997.0 mb 0.00 in0.0 mm 0.00 in0.0 mm 0.31 in7.9 mm
05:00 PM 61.6°F16.4°C 56.7°F13.7°C 84% 4.0 mph S6.4 kmh S 10.0 mph16.1 kmh 29.43 in996.6 mb 0.00 in0.0 mm 0.00 in0.0 mm 0.31 in7.9 mm
04:45 PM 61.6°F16.4°C 57.0°F13.9°C 85% 5.0 mph S8.0 kmh S 14.0 mph22.5 kmh 29.43 in996.6 mb 0.00 in0.0 mm 0.00 in0.0 mm 0.31 in7.9 mm
04:30 PM 61.1°F16.2°C 56.6°F13.7°C 85% 5.0 mph S8.0 kmh S 11.0 mph17.7 kmh 29.43 in996.6 mb 0.00 in0.0 mm 0.00 in0.0 mm 0.31 in7.9 mm
04:15 PM 61.8°F16.6°C 56.9°F13.8°C 84% 4.0 mph S6.4 kmh S 13.0 mph20.9 kmh 29.44 in997.0 mb 0.00 in0.0 mm 0.00 in0.0 mm 0.31 in7.9 mm
04:00 PM 62.6°F17.0°C 57.0°F13.9°C 82% 4.0 mph S6.4 kmh S 11.0 mph17.7 kmh 29.43 in996.6 mb 0.00 in0.0 mm 0.00 in0.0 mm 0.31 in7.9 mm
03:45 PM 64.0°F17.8°C 57.0°F13.9°C 78% 2.0 mph S3.2 kmh S 9.0 mph14.5 kmh 29.43 in996.6 mb 0.00 in0.0 mm 0.00 in0.0 mm 0.31 in7.9 mm
03:30 PM 64.2°F17.9°C 56.5°F13.6°C 76% 4.0 mph S6.4 kmh S 10.0 mph16.1 kmh 29.44 in997.0 mb 0.00 in0.0 mm 0.00 in0.0 mm 0.31 in7.9 mm
03:15 PM 63.4°F17.4°C 56.4°F13.6°C 78% 4.0 mph S6.4 kmh S 10.0 mph16.1 kmh 29.44 in997.0 mb 0.00 in0.0 mm 0.00 in0.0 mm 0.31 in7.9 mm
03:00 PM 63.1°F17.3°C 55.8°F13.2°C 77% 3.0 mph S4.8 kmh S 9.0 mph14.5 kmh 29.44 in997.0 mb 0.00 in0.0 mm 0.00 in0.0 mm 0.31 in7.9 mm
02:45 PM 62.7°F17.1°C 55.4°F13.0°C 77% 4.0 mph SW6.4 kmh SW 12.0 mph19.3 kmh 29.44 in997.0 mb 0.00 in0.0 mm 0.00 in0.0 mm 0.31 in7.9 mm
02:30 PM 62.3°F16.8°C 54.6°F12.6°C 76% 5.0 mph SSW8.0 kmh SSW 11.0 mph17.7 kmh 29.44 in997.0 mb 0.00 in0.0 mm 0.00 in0.0 mm 0.31 in7.9 mm
02:15 PM 62.0°F16.7°C 54.3°F12.4°C 76% 6.0 mph SW9.7 kmh SW 16.0 mph25.7 kmh 29.46 in997.6 mb 0.00 in0.0 mm 0.00 in0.0 mm 0.31 in7.9 mm
02:00 PM 62.6°F17.0°C 54.9°F12.7°C 76% 6.0 mph SSW9.7 kmh SSW 12.0 mph19.3 kmh 29.46 in997.6 mb 0.00 in0.0 mm 0.00 in0.0 mm 0.31 in7.9 mm
01:45 PM 62.7°F17.1°C 54.7°F12.6°C 75% 6.0 mph SW9.7 kmh SW 16.0 mph25.7 kmh 29.45 in997.3 mb 0.00 in0.0 mm 0.00 in0.0 mm 0.31 in7.9 mm
01:30 PM 63.7°F17.6°C 54.9°F12.7°C 73% 6.0 mph SW9.7 kmh SW 16.0 mph25.7 kmh 29.44 in997.0 mb 0.00 in0.0 mm 0.00 in0.0 mm 0.31 in7.9 mm
01:15 PM 62.9°F17.2°C 54.9°F12.7°C 75% 7.0 mph SW11.3 kmh SW 15.0 mph24.1 kmh 29.44 in997.0 mb 0.00 in0.0 mm 0.00 in0.0 mm 0.31 in7.9 mm
01:00 PM 62.4°F16.9°C 54.4°F12.4°C 75% 9.0 mph SW14.5 kmh SW 26.0 mph41.8 kmh 29.43 in996.6 mb 0.00 in0.0 mm 0.00 in0.0 mm 0.31 in7.9 mm
12:45 PM 61.8°F16.6°C 53.8°F12.1°C 75% 8.0 mph SW12.9 kmh SW 20.0 mph32.2 kmh 29.44 in997.0 mb 0.00 in0.0 mm 0.00 in0.0 mm 0.31 in7.9 mm
12:30 PM 62.1°F16.7°C 53.7°F12.1°C 74% 7.0 mph SW11.3 kmh SW 17.0 mph27.4 kmh 29.44 in997.0 mb 0.00 in0.0 mm 0.00 in0.0 mm 0.31 in7.9 mm
12:15 PM 62.2°F16.8°C 54.2°F12.3°C 75% 7.0 mph SW11.3 kmh SW 19.0 mph30.6 kmh 29.44 in997.0 mb 0.00 in0.0 mm 0.00 in0.0 mm 0.31 in7.9 mm
12:00 PM 62.6°F17.0°C 53.8°F12.1°C 73% 9.0 mph SW14.5 kmh SW 20.0 mph32.2 kmh 29.44 in997.0 mb 0.00 in0.0 mm 0.00 in0.0 mm 0.31 in7.9 mm
11:45 AM 62.7°F17.1°C 54.7°F12.6°C 75% 8.0 mph SW12.9 kmh SW 19.0 mph30.6 kmh 29.43 in996.6 mb 0.00 in0.0 mm 0.00 in0.0 mm 0.31 in7.9 mm
11:30 AM 63.1°F17.3°C 54.7°F12.6°C 74% 9.0 mph SW14.5 kmh SW 22.0 mph35.4 kmh 29.42 in996.3 mb 0.00 in0.0 mm 0.00 in0.0 mm 0.31 in7.9 mm
11:15 AM 62.2°F16.8°C 55.3°F12.9°C 78% 7.0 mph SW11.3 kmh SW 17.0 mph27.4 kmh 29.41 in995.9 mb 0.00 in0.0 mm 0.00 in0.0 mm 0.31 in7.9 mm
11:00 AM 62.2°F16.8°C 55.6°F13.1°C 79% 7.0 mph SW11.3 kmh SW 17.0 mph27.4 kmh 29.41 in995.9 mb 0.00 in0.0 mm 0.00 in0.0 mm 0.31 in7.9 mm
10:45 AM 60.9°F16.1°C 55.7°F13.2°C 83% 5.0 mph SW8.0 kmh SW 16.0 mph25.7 kmh 29.40 in995.6 mb 0.00 in0.0 mm 0.00 in0.0 mm 0.31 in7.9 mm
10:30 AM 61.0°F16.1°C 56.1°F13.4°C 84% 5.0 mph WSW8.0 kmh WSW 18.0 mph29.0 kmh 29.39 in995.3 mb 0.00 in0.0 mm 0.00 in0.0 mm 0.31 in7.9 mm
10:15 AM 61.4°F16.3°C 57.2°F14.0°C 86% 6.0 mph SW9.7 kmh SW 15.0 mph24.1 kmh 29.36 in994.2 mb 0.00 in0.0 mm 0.00 in0.0 mm 0.31 in7.9 mm
10:00 AM 60.8°F16.0°C 57.2°F14.0°C 88% 7.0 mph WSW11.3 kmh WSW 17.0 mph27.4 kmh 29.36 in994.2 mb 0.00 in0.0 mm 0.00 in0.0 mm 0.31 in7.9 mm
09:45 AM 60.3°F15.7°C 57.0°F13.9°C 89% 7.0 mph SW11.3 kmh SW 18.0 mph29.0 kmh 29.36 in994.2 mb 0.01 in0.3 mm 0.00 in0.0 mm 0.31 in7.9 mm
09:30 AM 61.6°F16.4°C 58.3°F14.6°C 89% 7.0 mph SW11.3 kmh SW 16.0 mph25.7 kmh 29.35 in993.9 mb 0.01 in0.3 mm 0.00 in0.0 mm 0.31 in7.9 mm
09:15 AM 61.6°F16.4°C 59.3°F15.2°C 92% 7.0 mph SW11.3 kmh SW 17.0 mph27.4 kmh 29.35 in993.9 mb 0.01 in0.3 mm 0.00 in0.0 mm 0.31 in7.9 mm
09:00 AM 61.4°F16.3°C 59.7°F15.4°C 94% 5.0 mph SW8.0 kmh SW 16.0 mph25.7 kmh 29.34 in993.6 mb 0.01 in0.3 mm 0.01 in0.3 mm 0.31 in7.9 mm
08:45 AM 61.2°F16.2°C 59.5°F15.3°C 94% 4.0 mph SW6.4 kmh SW 13.0 mph20.9 kmh 29.33 in993.2 mb 0.00 in0.0 mm 0.00 in0.0 mm 0.30 in7.6 mm
08:30 AM 61.0°F16.1°C 59.6°F15.3°C 95% 3.0 mph SW4.8 kmh SW 8.0 mph12.9 kmh 29.32 in992.9 mb 0.00 in0.0 mm 0.00 in0.0 mm 0.30 in7.6 mm
08:15 AM 60.9°F16.1°C 59.5°F15.3°C 95% 6.0 mph SW9.7 kmh SW 11.0 mph17.7 kmh 29.32 in992.9 mb 0.00 in0.0 mm 0.00 in0.0 mm 0.30 in7.6 mm
08:00 AM 60.5°F15.8°C 59.1°F15.1°C 95% 5.0 mph SW8.0 kmh SW 14.0 mph22.5 kmh 29.32 in992.9 mb 0.00 in0.0 mm 0.00 in0.0 mm 0.30 in7.6 mm
07:45 AM 60.2°F15.7°C 58.8°F14.9°C 95% 5.0 mph SW8.0 kmh SW 12.0 mph19.3 kmh 29.31 in992.6 mb 0.00 in0.0 mm 0.00 in0.0 mm 0.30 in7.6 mm
07:30 AM 60.0°F15.6°C 58.9°F14.9°C 96% 3.0 mph SW4.8 kmh SW 9.0 mph14.5 kmh 29.29 in991.9 mb 0.00 in0.0 mm 0.00 in0.0 mm 0.30 in7.6 mm
07:15 AM 59.2°F15.1°C 58.1°F14.5°C 96% 2.0 mph SW3.2 kmh SW 7.0 mph11.3 kmh 29.29 in991.9 mb 0.00 in0.0 mm 0.00 in0.0 mm 0.30 in7.6 mm
07:00 AM 58.8°F14.9°C 57.7°F14.3°C 96% 1.0 mph SW1.6 kmh SW 7.0 mph11.3 kmh 29.29 in991.9 mb 0.00 in0.0 mm 0.00 in0.0 mm 0.30 in7.6 mm
06:45 AM 58.4°F14.7°C 57.0°F13.9°C 95% 1.0 mph SSW1.6 kmh SSW 4.0 mph6.4 kmh 29.28 in991.5 mb 0.00 in0.0 mm 0.00 in0.0 mm 0.30 in7.6 mm
06:30 AM 58.3°F14.6°C 56.9°F13.8°C 95% 1.0 mph S1.6 kmh S 3.0 mph4.8 kmh 29.28 in991.5 mb 0.00 in0.0 mm 0.00 in0.0 mm 0.30 in7.6 mm
06:15 AM 58.2°F14.6°C 56.8°F13.8°C 95% 2.0 mph S3.2 kmh S 6.0 mph9.7 kmh 29.27 in991.2 mb 0.01 in0.3 mm 0.00 in0.0 mm 0.30 in7.6 mm
06:00 AM 58.2°F14.6°C 56.8°F13.8°C 95% 1.0 mph S1.6 kmh S 4.0 mph6.4 kmh 29.27 in991.2 mb 0.01 in0.3 mm 0.00 in0.0 mm 0.30 in7.6 mm
05:45 AM 58.2°F14.6°C 56.8°F13.8°C 95% 2.0 mph S3.2 kmh S 5.0 mph8.0 kmh 29.26 in990.9 mb 0.02 in0.5 mm 0.00 in0.0 mm 0.30 in7.6 mm
05:30 AM 58.3°F14.6°C 56.9°F13.8°C 95% 2.0 mph S3.2 kmh S 6.0 mph9.7 kmh 29.26 in990.9 mb 0.02 in0.5 mm 0.00 in0.0 mm 0.30 in7.6 mm
05:15 AM 58.3°F14.6°C 56.9°F13.8°C 95% 3.0 mph S4.8 kmh S 5.0 mph8.0 kmh 29.26 in990.9 mb 0.02 in0.5 mm 0.00 in0.0 mm 0.29 in7.4 mm
05:00 AM 58.3°F14.6°C 56.9°F13.8°C 95% 1.0 mph S1.6 kmh S 6.0 mph9.7 kmh 29.27 in991.2 mb 0.03 in0.8 mm 0.00 in0.0 mm 0.29 in7.4 mm
04:45 AM 58.2°F14.6°C 56.8°F13.8°C 95% 1.0 mph S1.6 kmh S 4.0 mph6.4 kmh 29.27 in991.2 mb 0.05 in1.3 mm 0.00 in0.0 mm 0.28 in7.1 mm
04:30 AM 58.2°F14.6°C 56.8°F13.8°C 95% 2.0 mph SSE3.2 kmh SSE 5.0 mph8.0 kmh 29.27 in991.2 mb 0.06 in1.5 mm 0.00 in0.0 mm 0.28 in7.1 mm
04:15 AM 58.3°F14.6°C 56.9°F13.8°C 95% 2.0 mph SSE3.2 kmh SSE 8.0 mph12.9 kmh 29.28 in991.5 mb 0.06 in1.5 mm 0.00 in0.0 mm 0.27 in6.9 mm
04:00 AM 58.5°F14.7°C 57.1°F13.9°C 95% 1.0 mph SSE1.6 kmh SSE 6.0 mph9.7 kmh 29.28 in991.5 mb 0.08 in2.0 mm 0.00 in0.0 mm 0.26 in6.6 mm
03:45 AM 58.6°F14.8°C 57.2°F14.0°C 95% 2.0 mph SE3.2 kmh SE 10.0 mph16.1 kmh 29.29 in991.9 mb 0.09 in2.3 mm 0.00 in0.0 mm 0.24 in6.1 mm
03:30 AM 58.5°F14.7°C 56.8°F13.8°C 94% 2.0 mph SE3.2 kmh SE 10.0 mph16.1 kmh 29.29 in991.9 mb 0.09 in2.3 mm 0.00 in0.0 mm 0.22 in5.6 mm
03:15 AM 58.5°F14.7°C 56.8°F13.8°C 94% 2.0 mph SE3.2 kmh SE 8.0 mph12.9 kmh 29.30 in992.2 mb 0.10 in2.5 mm 0.00 in0.0 mm 0.20 in5.1 mm
03:00 AM 58.5°F14.7°C 56.8°F13.8°C 94% 2.0 mph SE3.2 kmh SE 7.0 mph11.3 kmh 29.31 in992.6 mb 0.11 in2.8 mm 0.03 in0.8 mm 0.18 in4.6 mm
02:45 AM 58.5°F14.7°C 56.8°F13.8°C 94% 2.0 mph SSE3.2 kmh SSE 7.0 mph11.3 kmh 29.32 in992.9 mb 0.09 in2.3 mm 0.00 in0.0 mm 0.15 in3.8 mm
02:30 AM 58.7°F14.8°C 57.0°F13.9°C 94% 2.0 mph SE3.2 kmh SE 8.0 mph12.9 kmh 29.33 in993.2 mb 0.09 in2.3 mm 0.08 in2.0 mm 0.13 in3.3 mm
02:15 AM 59.1°F15.1°C 57.4°F14.1°C 94% 4.0 mph SSE6.4 kmh SSE 14.0 mph22.5 kmh 29.34 in993.6 mb 0.07 in1.8 mm 0.04 in1.0 mm 0.09 in2.3 mm
02:00 AM 59.1°F15.1°C 57.4°F14.1°C 94% 4.0 mph SSE6.4 kmh SSE 10.0 mph16.1 kmh 29.34 in993.6 mb 0.06 in1.5 mm 0.00 in0.0 mm 0.07 in1.8 mm
01:45 AM 59.1°F15.1°C 57.1°F13.9°C 93% 3.0 mph SSE4.8 kmh SSE 9.0 mph14.5 kmh 29.35 in993.9 mb 0.06 in1.5 mm 0.08 in2.0 mm 0.06 in1.5 mm
01:30 AM 59.2°F15.1°C 57.2°F14.0°C 93% 4.0 mph S6.4 kmh S 12.0 mph19.3 kmh 29.36 in994.2 mb 0.04 in1.0 mm 0.08 in2.0 mm 0.04 in1.0 mm
01:15 AM 59.3°F15.2°C 57.3°F14.1°C 93% 5.0 mph S8.0 kmh S 13.0 mph20.9 kmh 29.38 in994.9 mb 0.02 in0.5 mm 0.04 in1.0 mm 0.02 in0.5 mm
01:00 AM 59.4°F15.2°C 57.4°F14.1°C 93% 6.0 mph S9.7 kmh S 14.0 mph22.5 kmh 29.38 in994.9 mb 0.01 in0.3 mm 0.01 in0.3 mm 0.01 in0.3 mm
12:45 AM 59.3°F15.2°C 57.0°F13.9°C 92% 5.0 mph S8.0 kmh S 15.0 mph24.1 kmh 29.39 in995.3 mb 0.00 in0.0 mm 0.00 in0.0 mm 0.00 in0.0 mm
12:30 AM 59.4°F15.2°C 57.1°F13.9°C 92% 6.0 mph S9.7 kmh S 15.0 mph24.1 kmh 29.40 in995.6 mb 0.00 in0.0 mm 0.00 in0.0 mm 0.00 in0.0 mm
12:15 AM 59.3°F15.2°C 57.0°F13.9°C 92% 5.0 mph S8.0 kmh S 15.0 mph24.1 kmh 29.41 in995.9 mb 0.00 in0.0 mm 0.00 in0.0 mm 0.00 in0.0 mm
12:00 AM 59.1°F15.1°C 56.8°F13.8°C 92% 5.0 mph S8.0 kmh S 13.0 mph20.9 kmh 29.42 in996.3 mb 0.00 in0.0 mm 0.00 in0.0 mm 0.00 in0.0 mm